Terminal Aerodrome Forecast
Issued by NWS

Home | Current Version | Previous Version | Text Only | Print | Product List | Glossary On
Versions: 1 2 3 4 5 6 7 8 9 10 11 12 13 14 15 16 17 18 19 20
000
FTUS43 KABR 211100
TAFMBG
TAF
KMBG 211120Z 2112/2212 12008KT P6SM FEW070 BKN100 OVC120
     FM211500 14007KT P6SM OVC250
     FM220600 08005KT P6SM OVC100
     FM220900 02007KT P6SM OVC015=

USA.gov is the U.S. government's official web portal to all federal, state and local government web resources and services.